Time;durP1;ratioP1;P1;durP2;ratioP2;P2;SDS_P1;SDS_P2;PMS_P1;PMS_P2;Temp;Humidity;BMP_temperature;BMP_pressure;BME280_temperature;BME280_humidity;BME280_pressure;Samples;Min_cycle;Max_cycle;Signal;HPM_P1;HPM_P2
2022/06/17 00:01:24;;;;;;;9.15;5.22;;;13.10;66.20;;;;;;4133811;28;20436;-85
2022/06/17 00:03:27;;;;;;;14.68;6.72;;;13.10;66.30;;;;;;4133047;28;20490;-85
2022/06/17 00:05:29;;;;;;;9.70;6.70;;;13.00;66.40;;;;;;4135916;28;20076;-85
2022/06/17 00:07:30;;;;;;;13.77;6.22;;;13.00;66.50;;;;;;4150726;28;20322;-85
2022/06/17 00:09:51;;;;;;;13.15;6.30;;;13.00;66.50;;;;;;4133823;28;20108;-90
2022/06/17 00:11:53;;;;;;;12.65;7.25;;;13.00;66.60;;;;;;4154383;28;20112;-89
2022/06/17 00:14:20;;;;;;;12.95;6.68;;;12.90;66.60;;;;;;4152289;28;20041;-89
2022/06/17 00:16:42;;;;;;;11.43;7.05;;;13.00;66.90;;;;;;4151765;28;20409;-85
2022/06/17 00:18:43;;;;;;;13.38;7.63;;;12.90;66.80;;;;;;4150710;28;20037;-85
2022/06/17 00:20:44;;;;;;;19.80;9.25;;;12.90;67.00;;;;;;4146659;28;20209;-88
2022/06/17 00:22:46;;;;;;;19.52;8.90;;;12.90;67.10;;;;;;4133375;28;20070;-85
2022/06/17 00:25:27;;;;;;;18.88;8.63;;;12.80;67.10;;;;;;4147273;28;20026;-85
2022/06/17 00:27:48;;;;;;;15.18;8.20;;;12.80;67.80;;;;;;4152638;28;20414;-89
2022/06/17 00:30:16;;;;;;;14.80;8.45;;;12.80;67.50;;;;;;4148628;28;20113;-86
2022/06/17 00:32:37;;;;;;;15.18;8.60;;;12.80;67.70;;;;;;4148096;28;20412;-85
2022/06/17 00:34:58;;;;;;;16.77;9.30;;;12.80;67.70;;;;;;4135102;28;20731;-85
2022/06/17 00:37:19;;;;;;;12.07;8.63;;;12.70;67.80;;;;;;4152186;28;20537;-85
2022/06/17 00:39:40;;;;;;;17.17;8.57;;;12.70;68.00;;;;;;4135533;28;20451;-87
2022/06/17 00:42:14;;;;;;;15.55;8.70;;;12.70;68.10;;;;;;4150573;28;20518;-85
2022/06/17 00:44:58;;;;;;;16.05;8.70;;;12.70;68.60;;;;;;4149261;28;20484;-85
2022/06/17 00:47:38;;;;;;;;;;;12.70;68.70;;;;;;4151101;28;20489;-88
2022/06/17 00:50:11;;;;;;;11.52;7.20;;;12.60;69.40;;;;;;4150769;28;19928;-85
2022/06/17 00:52:41;;;;;;;15.75;8.25;;;12.60;68.00;;;;;;4136023;28;20505;-88
2022/06/17 00:54:53;;;;;;;12.88;8.15;;;12.60;68.00;;;;;;4151734;28;20026;-85
2022/06/17 00:56:53;;;;;;;16.63;7.88;;;12.60;67.90;;;;;;4135354;28;20913;-85
2022/06/17 00:59:00;;;;;;;18.42;8.40;;;12.50;67.80;;;;;;4151782;28;20071;-88
2022/06/17 01:01:03;;;;;;;16.10;8.77;;;12.50;67.90;;;;;;4132966;28;20045;-85
2022/06/17 01:03:13;;;;;;;17.90;9.60;;;12.40;67.80;;;;;;4149490;28;20496;-85
2022/06/17 01:05:17;;;;;;;19.17;9.73;;;12.40;68.10;;;;;;4147691;28;20027;-88
2022/06/17 01:07:23;;;;;;;;;;;12.40;68.20;;;;;;4147640;28;20045;-85
2022/06/17 01:11:55;;;;;;;22.08;11.68;;;12.40;68.30;;;;;;4145486;28;20079;-85
2022/06/17 01:13:57;;;;;;;23.50;10.88;;;12.40;68.50;;;;;;4144510;28;20490;-84
2022/06/17 01:15:58;;;;;;;19.55;11.63;;;12.30;68.70;;;;;;4149321;28;20533;-85
2022/06/17 01:18:00;;;;;;;26.70;12.10;;;12.30;68.90;;;;;;4147963;28;20056;-88
2022/06/17 01:20:03;;;;;;;20.50;11.68;;;12.30;69.10;;;;;;4136361;28;20729;-85
2022/06/17 01:22:26;;;;;;;25.00;13.23;;;12.30;69.50;;;;;;4132817;28;20818;-88
2022/06/17 01:24:27;;;;;;;20.25;12.40;;;12.20;70.20;;;;;;4132002;28;20132;-86
2022/06/17 01:26:28;;;;;;;19.67;11.65;;;12.30;69.80;;;;;;4148291;28;20478;-85
2022/06/17 01:28:29;;;;;;;19.85;11.65;;;12.30;70.00;;;;;;4135345;28;20574;-85
2022/06/17 01:30:36;;;;;;;20.05;11.73;;;12.20;70.10;;;;;;4148633;28;20025;-88
2022/06/17 01:32:45;;;;;;;18.00;11.52;;;12.20;70.20;;;;;;4147610;28;20489;-86
2022/06/17 01:34:46;;;;;;;17.55;11.23;;;12.20;70.30;;;;;;4147701;28;21961;-89
2022/06/17 01:36:49;;;;;;;21.45;10.88;;;12.20;70.10;;;;;;4132101;28;20065;-85
2022/06/17 01:38:52;;;;;;;20.80;10.68;;;12.20;70.10;;;;;;4135745;28;20070;-85
2022/06/17 01:40:55;;;;;;;20.08;10.60;;;12.20;70.00;;;;;;4144244;28;20029;-85
2022/06/17 01:43:04;;;;;;;21.58;11.35;;;12.20;69.80;;;;;;4127575;28;20184;-85
2022/06/17 01:45:07;;;;;;;18.08;10.77;;;12.10;69.70;;;;;;4121982;28;20916;-88
2022/06/17 01:47:14;;;;;;;;;;;12.10;69.60;;;;;;4132886;28;20030;-86
2022/06/17 01:49:19;;;;;;;17.90;9.93;;;12.10;70.20;;;;;;4148338;28;19932;-88
2022/06/17 01:51:23;;;;;;;16.35;10.48;;;12.10;69.40;;;;;;4133538;28;20064;-86
2022/06/17 01:53:29;;;;;;;15.20;9.63;;;12.00;69.30;;;;;;4144894;28;20057;-86
2022/06/17 01:55:41;;;;;;;19.98;10.82;;;12.00;69.40;;;;;;4144117;28;20028;-85
2022/06/17 01:58:05;;;;;;;15.95;10.55;;;12.00;70.20;;;;;;4132728;28;20048;-88
2022/06/17 02:00:18;;;;;;;18.33;10.88;;;12.00;69.50;;;;;;4148057;28;20079;-86
2022/06/17 02:02:22;;;;;;;14.90;9.88;;;11.90;69.20;;;;;;4131994;28;20026;-86
2022/06/17 02:04:28;;;;;;;16.77;9.48;;;11.90;69.20;;;;;;4147245;28;20497;-86
2022/06/17 02:06:38;;;;;;;19.35;10.43;;;11.80;69.10;;;;;;4128463;28;20057;-85
2022/06/17 02:08:39;;;;;;;18.85;10.45;;;11.80;69.00;;;;;;4148664;28;20482;-86
2022/06/17 02:10:46;;;;;;;14.55;9.90;;;11.80;68.90;;;;;;4149196;28;20036;-86
2022/06/17 02:12:48;;;;;;;17.63;10.45;;;11.80;68.90;;;;;;4148166;28;20052;-86
2022/06/17 02:14:48;;;;;;;15.75;9.77;;;11.80;68.90;;;;;;4147214;28;20571;-88
2022/06/17 02:16:52;;;;;;;13.45;9.55;;;11.70;68.80;;;;;;4131125;28;20136;-86
2022/06/17 02:18:54;;;;;;;15.05;9.48;;;11.70;68.80;;;;;;4152410;28;20033;-85
2022/06/17 02:20:58;;;;;;;17.13;9.55;;;11.70;68.70;;;;;;4131521;28;20501;-86
2022/06/17 02:23:00;;;;;;;14.35;9.35;;;11.60;68.70;;;;;;4148652;28;20029;-87
2022/06/17 02:25:06;;;;;;;16.55;9.95;;;11.60;68.60;;;;;;4117937;28;20412;-87
2022/06/17 02:27:11;;;;;;;18.83;11.18;;;11.60;68.60;;;;;;4115588;28;20034;-86
2022/06/17 02:29:14;;;;;;;21.42;11.80;;;11.60;68.50;;;;;;4134504;28;20029;-87
2022/06/17 02:31:16;;;;;;;22.02;12.38;;;11.60;68.50;;;;;;4121046;28;20026;-85
2022/06/17 02:33:19;;;;;;;19.73;12.23;;;11.50;68.50;;;;;;4111744;28;20172;-88
2022/06/17 02:35:43;;;;;;;22.67;12.55;;;11.50;68.50;;;;;;4129006;28;20450;-86
2022/06/17 02:38:06;;;;;;;23.17;13.00;;;11.50;68.70;;;;;;4131289;28;20033;-86
2022/06/17 02:40:33;;;;;;;22.10;13.50;;;11.50;68.60;;;;;;4135141;28;20437;-86
2022/06/17 02:42:54;;;;;;;20.95;13.43;;;11.40;68.70;;;;;;4150075;28;20432;-89
2022/06/17 02:45:23;;;;;;;20.00;12.80;;;11.40;68.80;;;;;;4134041;28;20034;-86
2022/06/17 02:47:44;;;;;;;17.60;11.50;;;11.40;68.90;;;;;;4144817;28;20398;-86
2022/06/17 02:50:06;;;;;;;17.73;11.45;;;11.40;68.90;;;;;;4135145;28;21612;-85
2022/06/17 02:52:38;;;;;;;20.98;12.57;;;11.40;69.00;;;;;;4147227;28;20382;-85
2022/06/17 02:55:04;;;;;;;17.85;11.30;;;11.30;69.10;;;;;;4148018;28;20461;-87
2022/06/17 02:57:28;;;;;;;19.27;11.38;;;11.30;69.10;;;;;;4149468;28;20687;-86
2022/06/17 02:59:41;;;;;;;16.88;11.63;;;11.30;69.10;;;;;;4142562;28;20033;-85
2022/06/17 03:01:43;;;;;;;16.42;10.80;;;11.30;69.20;;;;;;4149665;28;20025;-85
2022/06/17 03:03:45;;;;;;;20.90;13.32;;;11.30;69.20;;;;;;4151009;28;20516;-86
2022/06/17 03:05:47;;;;;;;21.33;13.02;;;11.30;69.30;;;;;;4145312;28;20509;-85
2022/06/17 03:07:48;;;;;;;25.90;13.82;;;11.30;69.40;;;;;;4131537;28;20036;-88
2022/06/17 03:09:49;;;;;;;22.27;13.40;;;11.30;69.50;;;;;;4145488;28;20108;-87
2022/06/17 03:12:08;;;;;;;25.00;14.63;;;11.20;69.50;;;;;;4132743;28;20124;-88
2022/06/17 03:14:13;;;;;;;23.00;13.32;;;11.30;69.60;;;;;;4135920;28;20026;-85
2022/06/17 03:16:16;;;;;;;23.58;13.63;;;11.20;69.60;;;;;;4144857;28;20037;-87
2022/06/17 03:18:17;;;;;;;23.35;14.18;;;11.20;69.60;;;;;;4135073;28;20601;-85
2022/06/17 03:20:34;;;;;;;22.33;13.60;;;11.20;69.80;;;;;;4126211;28;20057;-85
2022/06/17 03:22:35;;;;;;;18.88;13.23;;;11.20;69.90;;;;;;4122206;28;20033;-85
2022/06/17 03:24:51;;;;;;;21.27;13.68;;;11.20;69.90;;;;;;4148126;28;20975;-85
2022/06/17 03:26:57;;;;;;;27.67;14.40;;;11.20;70.30;;;;;;4148291;28;20108;-85
2022/06/17 03:29:01;;;;;;;23.02;14.40;;;11.20;70.20;;;;;;4133469;28;20930;-85
2022/06/17 03:31:08;;;;;;;22.70;14.40;;;11.20;70.30;;;;;;4144429;28;20520;-85
2022/06/17 03:33:18;;;;;;;24.42;15.68;;;11.30;71.30;;;;;;4145596;28;20107;-88
2022/06/17 03:35:24;;;;;;;30.13;17.42;;;11.20;70.70;;;;;;4145965;28;20486;-88
2022/06/17 03:37:28;;;;;;;32.67;19.02;;;11.20;71.10;;;;;;4147094;28;20478;-89
2022/06/17 03:39:45;;;;;;;32.90;17.85;;;11.30;71.70;;;;;;4147342;28;20026;-86
2022/06/17 03:42:00;;;;;;;29.58;17.67;;;11.30;72.40;;;;;;4141830;28;20540;-87
2022/06/17 03:44:09;;;;;;;35.58;19.65;;;11.30;73.00;;;;;;4135269;28;21789;-88
2022/06/17 03:46:11;;;;;;;34.55;19.05;;;11.30;73.20;;;;;;4128503;28;20406;-85
2022/06/17 03:48:35;;;;;;;29.73;18.48;;;11.40;73.30;;;;;;4147042;28;20448;-85
2022/06/17 03:50:43;;;;;;;32.42;17.48;;;11.50;74.30;;;;;;4143206;28;20034;-86
2022/06/17 03:52:48;;;;;;;28.58;16.10;;;11.50;73.90;;;;;;4142836;28;20381;-85
2022/06/17 03:54:49;;;;;;;44.63;17.55;;;11.50;73.80;;;;;;4142338;28;20553;-86
2022/06/17 03:56:52;;;;;;;23.65;15.45;;;11.50;74.00;;;;;;4117008;28;20034;-89
2022/06/17 03:59:00;;;;;;;30.10;17.17;;;11.60;74.30;;;;;;4130588;28;20045;-86
2022/06/17 04:01:16;;;;;;;23.40;15.35;;;11.60;74.50;;;;;;4106531;28;20027;-85
2022/06/17 04:03:25;;;;;;;22.35;14.65;;;11.70;74.80;;;;;;4122282;28;20036;-85
2022/06/17 04:05:30;;;;;;;24.65;14.85;;;11.70;75.40;;;;;;4125143;28;20057;-88
2022/06/17 04:07:51;;;;;;;24.30;14.10;;;11.70;74.70;;;;;;4148768;28;20620;-88
2022/06/17 04:10:23;;;;;;;24.83;14.82;;;11.80;74.80;;;;;;4146519;28;20384;-86
2022/06/17 04:12:47;;;;;;;22.70;14.52;;;11.80;75.10;;;;;;4140648;28;20371;-89
2022/06/17 04:15:25;;;;;;;25.42;14.50;;;11.90;75.40;;;;;;4146211;28;20367;-86
2022/06/17 04:17:48;;;;;;;20.05;14.25;;;11.90;75.90;;;;;;4131117;28;20038;-85
2022/06/17 04:20:24;;;;;;;20.58;14.50;;;12.00;76.20;;;;;;4139045;28;20454;-86
2022/06/17 04:22:48;;;;;;;21.23;13.82;;;12.10;77.20;;;;;;4133850;28;20509;-86
2022/06/17 04:25:11;;;;;;;;;;;12.10;77.20;;;;;;4138602;28;20425;-86
2022/06/17 04:30:19;;;;;;;20.55;13.57;;;12.30;78.10;;;;;;4145337;28;20869;-86
2022/06/17 04:32:40;;;;;;;26.05;14.98;;;12.50;78.50;;;;;;4143783;28;20033;-86
2022/06/17 04:35:01;;;;;;;20.65;13.55;;;12.50;78.60;;;;;;4142942;28;20388;-86
2022/06/17 04:37:20;;;;;;;26.30;14.27;;;12.60;78.60;;;;;;4140416;28;20575;-88
2022/06/17 04:39:57;;;;;;;20.85;13.98;;;12.70;78.70;;;;;;4141588;28;20450;-88
2022/06/17 04:42:24;;;;;;;26.42;14.23;;;12.90;79.50;;;;;;4142377;28;20463;-88
2022/06/17 04:44:45;;;;;;;24.08;15.27;;;13.00;79.40;;;;;;4130000;28;20465;-86
2022/06/17 04:47:12;;;;;;;22.42;13.85;;;13.10;79.80;;;;;;4142534;28;20489;-90
2022/06/17 04:49:36;;;;;;;21.88;13.07;;;13.20;79.90;;;;;;4121125;28;20411;-89
2022/06/17 04:52:04;;;;;;;21.58;13.63;;;13.30;80.00;;;;;;4150761;28;20179;-86
2022/06/17 04:54:26;;;;;;;20.30;13.55;;;13.50;80.40;;;;;;4147178;28;20026;-86
2022/06/17 04:56:50;;;;;;;21.33;13.20;;;13.60;80.30;;;;;;4145404;28;20462;-86
2022/06/17 04:59:30;;;;;;;22.85;13.10;;;13.70;79.60;;;;;;4138896;28;20478;-86
2022/06/17 05:01:36;;;;;;;21.67;12.77;;;13.90;79.00;;;;;;4136675;28;20573;-88
2022/06/17 05:04:01;;;;;;;25.13;12.85;;;13.90;78.50;;;;;;4139792;28;20640;-87
2022/06/17 05:06:21;;;;;;;19.15;12.57;;;14.00;78.20;;;;;;4146362;28;20425;-87
2022/06/17 05:08:50;;;;;;;20.13;12.43;;;14.20;78.10;;;;;;4143517;28;20033;-88
2022/06/17 05:11:25;;;;;;;19.70;11.32;;;14.30;77.80;;;;;;4142624;28;20405;-88
2022/06/17 05:13:52;;;;;;;22.90;11.82;;;14.40;77.10;;;;;;4145776;28;20402;-88
2022/06/17 05:16:13;;;;;;;22.58;12.93;;;14.50;76.70;;;;;;4152070;28;20088;-87
2022/06/17 05:18:33;;;;;;;18.65;12.30;;;14.60;76.20;;;;;;4146403;28;20401;-87
2022/06/17 05:20:54;;;;;;;19.90;12.25;;;14.70;75.70;;;;;;4145612;28;20449;-87
2022/06/17 05:23:16;;;;;;;18.73;11.73;;;14.70;75.40;;;;;;4132974;28;20613;-87
2022/06/17 05:25:40;;;;;;;19.85;12.85;;;14.80;74.80;;;;;;4138167;28;20430;-87
2022/06/17 05:28:01;;;;;;;21.13;12.00;;;14.90;74.30;;;;;;4148333;28;20536;-87
2022/06/17 05:30:22;;;;;;;18.17;12.07;;;15.00;74.10;;;;;;4151605;28;20402;-89
2022/06/17 05:32:54;;;;;;;25.83;12.13;;;15.00;74.00;;;;;;4150311;28;20076;-87
2022/06/17 05:35:15;;;;;;;22.10;13.25;;;15.10;74.30;;;;;;4133957;28;20403;-87
2022/06/17 05:37:36;;;;;;;27.08;12.52;;;15.20;74.10;;;;;;4146951;28;20104;-86
2022/06/17 05:39:37;;;;;;;25.52;14.02;;;15.30;73.80;;;;;;4151576;28;20049;-89
2022/06/17 05:41:57;;;;;;;22.60;13.70;;;15.30;73.60;;;;;;4137332;28;20509;-90
2022/06/17 05:44:18;;;;;;;17.63;11.70;;;15.40;73.80;;;;;;4147571;28;20955;-88
2022/06/17 05:46:39;;;;;;;21.33;12.77;;;15.50;73.60;;;;;;4144105;28;20045;-88
2022/06/17 05:48:57;;;;;;;22.35;11.90;;;15.60;73.40;;;;;;4118665;28;20046;-87
2022/06/17 05:51:18;;;;;;;26.58;12.20;;;15.60;73.20;;;;;;4151694;28;20741;-88
2022/06/17 05:53:39;;;;;;;17.25;10.38;;;15.70;72.90;;;;;;4151671;28;20430;-88
2022/06/17 05:55:59;;;;;;;19.95;10.75;;;15.80;72.70;;;;;;4139339;28;20034;-88
2022/06/17 05:58:20;;;;;;;17.02;10.38;;;15.90;72.70;;;;;;4149735;28;20091;-88
2022/06/17 06:00:41;;;;;;;14.82;9.40;;;16.00;72.70;;;;;;4144592;28;20508;-87
2022/06/17 06:03:05;;;;;;;18.90;11.30;;;16.00;72.60;;;;;;4141543;28;20460;-87
2022/06/17 06:05:27;;;;;;;19.55;10.95;;;16.10;72.50;;;;;;4136287;28;20411;-89
2022/06/17 06:07:48;;;;;;;15.25;10.00;;;16.20;72.30;;;;;;4148060;28;20410;-89
2022/06/17 06:10:11;;;;;;;16.05;9.80;;;16.30;72.40;;;;;;4148685;28;20507;-89
2022/06/17 06:15:12;;;;;;;16.52;10.38;;;16.50;72.60;;;;;;4152459;28;20413;-90
2022/06/17 06:17:53;;;;;;;13.55;9.88;;;16.60;72.50;;;;;;4130354;28;20437;-90
2022/06/17 06:21:05;;;;;;;;;;;;;;;;;;;;;
2022/06/17 06:27:25;;;;;;;16.48;9.85;;;16.90;70.80;;;;;;4138224;28;20460;-89
2022/06/17 06:30:52;;;;;;;17.02;11.45;;;17.00;70.60;;;;;;4137215;28;21145;-89
2022/06/17 06:33:43;;;;;;;17.17;9.63;;;16.90;70.30;;;;;;4105219;28;20043;-89
2022/06/17 06:40:28;;;;;;;14.60;8.98;;;17.20;69.40;;;;;;4044702;29;20528;-87
2022/06/17 06:42:53;;;;;;;16.75;9.23;;;17.30;69.50;;;;;;4062124;28;20495;-88
2022/06/17 06:45:21;;;;;;;19.60;10.32;;;17.40;69.40;;;;;;4080647;28;20090;-88
2022/06/17 06:47:32;;;;;;;17.15;10.38;;;17.40;69.20;;;;;;4125999;28;20453;-89
2022/06/17 06:49:58;;;;;;;14.98;10.30;;;17.50;69.10;;;;;;4133637;28;20034;-88
2022/06/17 06:52:19;;;;;;;17.40;9.65;;;17.60;69.10;;;;;;4139896;28;20049;-89
2022/06/17 06:54:52;;;;;;;16.27;8.73;;;17.70;69.10;;;;;;4144084;28;20476;-89
2022/06/17 06:57:23;;;;;;;14.90;9.00;;;17.70;68.90;;;;;;4151689;28;20721;-87
2022/06/17 06:59:43;;;;;;;15.52;8.80;;;17.90;68.50;;;;;;4154999;28;20044;-89
2022/06/17 07:02:12;;;;;;;18.38;10.13;;;18.00;68.50;;;;;;4140888;28;20397;-89
2022/06/17 07:04:22;;;;;;;15.18;8.77;;;18.10;67.70;;;;;;4148355;28;20029;-89
2022/06/17 07:07:09;;;;;;;13.82;8.88;;;18.20;67.30;;;;;;4145595;28;20289;-89
2022/06/17 07:09:59;;;;;;;14.18;8.95;;;18.30;66.50;;;;;;4147197;28;20625;-89
2022/06/17 07:12:22;;;;;;;13.73;8.23;;;18.40;66.50;;;;;;4146990;28;20681;-87
2022/06/17 07:15:31;;;;;;;20.13;9.15;;;18.50;66.00;;;;;;4152672;28;20037;-89
2022/06/17 07:18:00;;;;;;;19.88;10.75;;;18.60;64.10;;;;;;4151144;28;20330;-89
2022/06/17 07:20:21;;;;;;;13.82;8.23;;;18.70;64.60;;;;;;4148980;28;20104;-88
2022/06/17 07:22:42;;;;;;;13.05;7.75;;;18.80;64.60;;;;;;4149129;28;20438;-89
2022/06/17 07:25:09;;;;;;;15.95;8.75;;;18.90;64.80;;;;;;4149454;28;20022;-88
2022/06/17 07:27:43;;;;;;;15.57;8.90;;;18.90;64.70;;;;;;4149747;28;20444;-89
2022/06/17 07:30:15;;;;;;;14.57;9.07;;;19.00;64.10;;;;;;4149672;28;20084;-89
2022/06/17 07:32:35;;;;;;;12.25;7.82;;;19.10;63.50;;;;;;4148138;28;20409;-90
2022/06/17 07:35:00;;;;;;;10.52;6.93;;;19.10;63.10;;;;;;4143265;28;20280;-89
2022/06/17 07:40:12;;;;;;;12.43;6.80;;;19.30;62.40;;;;;;4150114;28;20108;-90
2022/06/17 07:42:38;;;;;;;15.63;6.20;;;19.30;62.20;;;;;;4149638;28;21167;-88
2022/06/17 07:45:13;;;;;;;10.57;5.75;;;19.40;61.80;;;;;;4147989;28;20426;-88
2022/06/17 07:47:37;;;;;;;10.98;5.72;;;19.50;61.60;;;;;;4133940;28;20414;-89
2022/06/17 07:49:58;;;;;;;10.50;5.00;;;19.60;61.50;;;;;;4149197;28;20047;-87
2022/06/17 07:52:22;;;;;;;6.05;3.88;;;19.70;61.40;;;;;;4137931;28;20437;-88
2022/06/17 07:54:24;;;;;;;6.40;3.20;;;19.70;60.50;;;;;;4147643;28;20025;-87
2022/06/17 07:56:28;;;;;;;15.05;3.22;;;19.80;59.80;;;;;;4118927;28;20097;-89
2022/06/17 07:58:49;;;;;;;8.77;3.63;;;19.80;59.30;;;;;;4133350;28;20029;-88
2022/06/17 08:01:14;;;;;;;6.53;3.85;;;19.90;59.00;;;;;;4152679;28;20033;-88
2022/06/17 08:03:35;;;;;;;11.48;4.40;;;20.00;58.30;;;;;;4148964;28;20095;-88
2022/06/17 08:05:57;;;;;;;10.95;4.20;;;20.10;58.90;;;;;;4131910;28;20070;-87
2022/06/17 08:08:22;;;;;;;8.50;3.90;;;20.20;58.00;;;;;;4147626;28;20030;-89
2022/06/17 08:10:42;;;;;;;8.77;3.58;;;20.20;57.70;;;;;;4135407;28;20653;-90
2022/06/17 08:13:08;;;;;;;5.97;2.97;;;20.30;57.30;;;;;;4147866;28;20030;-87
2022/06/17 08:15:29;;;;;;;3.53;2.55;;;20.40;57.00;;;;;;4150137;28;20025;-88
2022/06/17 08:17:52;;;;;;;9.30;3.55;;;20.50;56.80;;;;;;4147096;28;20067;-89
2022/06/17 08:20:25;;;;;;;5.35;3.55;;;20.60;56.60;;;;;;4140563;28;20424;-88
2022/06/17 08:22:46;;;;;;;8.27;3.53;;;20.70;56.10;;;;;;4150364;28;20033;-89
2022/06/17 08:25:07;;;;;;;5.93;2.72;;;20.80;56.00;;;;;;4147769;28;20030;-89
2022/06/17 08:27:27;;;;;;;5.70;2.63;;;20.90;56.00;;;;;;4145388;28;20041;-89
2022/06/17 08:29:50;;;;;;;4.43;2.40;;;21.00;56.00;;;;;;4145012;28;20029;-89
2022/06/17 08:34:50;;;;;;;4.18;2.08;;;21.20;55.50;;;;;;4145355;28;20037;-89
2022/06/17 08:37:13;;;;;;;5.65;3.25;;;21.30;55.00;;;;;;4136263;28;20062;-89
2022/06/17 08:39:34;;;;;;;5.83;2.70;;;21.40;54.00;;;;;;4146630;28;20030;-90
2022/06/17 08:42:19;;;;;;;2.80;1.98;;;21.50;53.70;;;;;;4146089;28;20026;-89
2022/06/17 08:44:58;;;;;;;5.75;2.28;;;21.60;52.00;;;;;;4147975;28;20034;-89
2022/06/17 08:47:30;;;;;;;5.55;2.47;;;21.60;51.40;;;;;;4146613;28;20175;-89
2022/06/17 08:50:09;;;;;;;7.70;2.70;;;21.70;51.40;;;;;;4149934;28;20037;-90
2022/06/17 08:53:03;;;;;;;7.97;2.38;;;21.70;51.10;;;;;;4136377;28;20034;-88
2022/06/17 08:55:45;;;;;;;5.22;2.10;;;21.70;50.40;;;;;;4137688;28;20110;-87
2022/06/17 08:58:13;;;;;;;8.43;3.05;;;21.80;51.40;;;;;;4138125;28;20034;-88
2022/06/17 09:01:06;;;;;;;7.95;2.95;;;21.80;50.70;;;;;;4139163;28;20046;-90
2022/06/17 09:03:23;;;;;;;5.88;2.83;;;21.90;50.90;;;;;;4145685;28;20041;-90
2022/06/17 09:05:49;;;;;;;4.35;2.45;;;21.80;50.50;;;;;;4150970;28;20049;-87
2022/06/17 09:08:22;;;;;;;;;;;21.90;51.10;;;;;;4146311;28;20034;-89
2022/06/17 09:11:16;;;;;;;5.40;2.40;;;21.90;50.90;;;;;;4147753;28;19917;-87
2022/06/17 09:14:08;;;;;;;6.40;3.00;;;21.90;49.30;;;;;;4139527;28;20100;-88
2022/06/17 09:16:47;;;;;;;5.88;2.20;;;22.00;49.60;;;;;;4152876;28;20029;-89
2022/06/17 09:19:12;;;;;;;9.40;2.30;;;22.00;49.70;;;;;;4137624;28;20034;-88
2022/06/17 09:22:00;;;;;;;5.45;2.20;;;22.00;49.80;;;;;;4145199;28;20251;-88
2022/06/17 09:24:32;;;;;;;7.65;2.17;;;22.10;49.80;;;;;;4150236;28;20038;-89
2022/06/17 09:27:04;;;;;;;5.15;2.20;;;22.10;49.70;;;;;;4149902;28;20034;-89
2022/06/17 09:29:34;;;;;;;6.75;2.17;;;22.10;49.80;;;;;;4148675;28;20033;-88
2022/06/17 09:32:03;;;;;;;4.50;1.70;;;22.10;49.90;;;;;;4147897;28;20622;-89
2022/06/17 09:34:27;;;;;;;4.75;1.67;;;22.10;49.40;;;;;;4136058;28;20039;-88
2022/06/17 09:37:11;;;;;;;3.70;1.70;;;22.20;48.80;;;;;;4149915;28;20029;-88
2022/06/17 09:40:01;;;;;;;4.05;2.10;;;22.20;48.40;;;;;;4152567;28;20077;-88
2022/06/17 09:42:32;;;;;;;6.70;2.00;;;22.30;48.80;;;;;;4134802;28;20026;-88
2022/06/17 09:45:08;;;;;;;8.00;2.28;;;22.30;48.90;;;;;;4135207;28;20026;-89
2022/06/17 09:47:18;;;;;;;5.38;2.38;;;22.30;48.90;;;;;;4131365;28;20030;-88
2022/06/17 09:49:35;;;;;;;4.55;2.00;;;22.40;49.40;;;;;;4147763;28;20021;-89
2022/06/17 09:52:31;;;;;;;3.97;1.60;;;22.50;48.80;;;;;;4153197;28;20099;-89
2022/06/17 09:55:21;;;;;;;7.18;1.80;;;22.50;48.10;;;;;;4121692;28;20140;-89
2022/06/17 09:57:34;;;;;;;3.05;1.35;;;22.50;47.90;;;;;;4149246;28;20378;-88
2022/06/17 09:59:41;;;;;;;2.90;1.38;;;22.60;47.80;;;;;;4116440;28;20092;-89
2022/06/17 10:02:23;;;;;;;4.45;1.80;;;22.60;47.60;;;;;;4144429;28;20035;-89
2022/06/17 10:04:33;;;;;;;5.80;1.50;;;22.60;47.10;;;;;;4137810;28;20193;-89
2022/06/17 10:06:46;;;;;;;3.10;1.10;;;22.60;47.40;;;;;;4149536;28;20068;-90
2022/06/17 10:09:37;;;;;;;8.45;1.35;;;22.70;47.40;;;;;;4134244;28;20030;-89
2022/06/17 10:12:10;;;;;;;4.88;1.50;;;22.70;46.10;;;;;;4137465;28;20461;-89
2022/06/17 10:14:53;;;;;;;9.82;1.58;;;22.70;45.80;;;;;;4136076;28;20066;-89
2022/06/17 10:20:18;;;;;;;6.05;1.25;;;22.60;45.60;;;;;;4153978;28;20051;-88
2022/06/17 10:22:55;;;;;;;2.00;1.50;;;22.60;45.40;;;;;;4154130;28;20033;-89
2022/06/17 10:25:26;;;;;;;3.38;1.30;;;22.60;45.30;;;;;;4152067;28;20033;-89
2022/06/17 10:28:14;;;;;;;5.25;1.58;;;22.50;45.20;;;;;;4153318;28;20424;-89
2022/06/17 10:30:58;;;;;;;2.85;1.50;;;22.50;45.60;;;;;;4147693;28;20037;-89
2022/06/17 10:33:20;;;;;;;6.85;1.70;;;22.50;45.60;;;;;;4148532;28;20457;-89
2022/06/17 10:35:43;;;;;;;4.15;1.52;;;22.50;45.80;;;;;;4145842;28;20030;-90
2022/06/17 10:38:07;;;;;;;6.05;2.00;;;22.50;44.80;;;;;;4148050;28;20454;-89
2022/06/17 10:40:31;;;;;;;4.55;1.75;;;22.50;44.40;;;;;;4146145;28;20409;-89
2022/06/17 10:42:57;;;;;;;4.38;1.88;;;22.50;44.80;;;;;;4143878;28;20406;-90
2022/06/17 10:45:18;;;;;;;5.47;1.80;;;22.50;45.00;;;;;;4136146;28;20404;-90
2022/06/17 10:47:57;;;;;;;5.85;1.50;;;22.50;45.50;;;;;;4152232;28;20464;-89
2022/06/17 10:50:24;;;;;;;6.35;1.55;;;22.40;44.90;;;;;;4136343;28;20107;-89
2022/06/17 10:53:09;;;;;;;5.20;1.83;;;22.40;44.40;;;;;;4146444;28;20033;-89
2022/06/17 10:55:35;;;;;;;4.35;1.70;;;22.40;44.00;;;;;;4136098;28;20030;-88
2022/06/17 10:58:18;;;;;;;4.93;1.83;;;22.40;44.50;;;;;;4130109;28;20137;-90
2022/06/17 11:00:27;;;;;;;5.88;1.73;;;22.40;44.00;;;;;;4134220;28;20045;-89
2022/06/17 11:02:31;;;;;;;7.47;1.77;;;22.40;44.20;;;;;;4127770;28;20030;-91
2022/06/17 11:04:35;;;;;;;6.10;1.63;;;22.40;44.00;;;;;;4128888;28;20486;-88
2022/06/17 11:06:50;;;;;;;7.47;1.85;;;22.30;44.20;;;;;;4148705;28;20033;-89
2022/06/17 11:08:56;;;;;;;5.55;1.92;;;22.30;44.70;;;;;;4132176;28;20372;-90
2022/06/17 11:12:02;;;;;;;3.83;1.80;;;22.20;44.90;;;;;;4149653;28;20036;-90
2022/06/17 11:13:22;;;;;;;8.10;2.40;;;22.20;45.10;;;;;;4137221;28;20026;-90
2022/06/17 11:15:46;;;;;;;8.40;2.70;;;22.20;45.40;;;;;;4152890;28;20714;-89
2022/06/17 11:17:52;;;;;;;4.88;1.90;;;22.20;45.50;;;;;;4116136;28;20045;-90
2022/06/17 11:20:16;;;;;;;6.65;2.80;;;22.10;45.80;;;;;;4137792;28;20030;-92
2022/06/17 11:22:38;;;;;;;4.22;2.00;;;22.10;46.30;;;;;;4147288;28;20393;-90
2022/06/17 11:25:07;;;;;;;7.68;2.42;;;22.10;47.00;;;;;;4138371;28;20765;-89
2022/06/17 11:27:38;;;;;;;7.95;2.60;;;22.00;47.90;;;;;;4148188;28;20398;-90
2022/06/17 11:30:24;;;;;;;5.50;2.60;;;21.90;48.20;;;;;;4138013;28;20049;-89
2022/06/17 11:32:45;;;;;;;7.20;2.83;;;21.90;48.70;;;;;;4133086;28;20035;-90
2022/06/17 11:35:33;;;;;;;5.10;2.58;;;21.90;48.60;;;;;;4147231;28;20092;-89
2022/06/17 11:37:56;;;;;;;6.60;2.83;;;21.80;48.70;;;;;;4148964;28;20389;-88
2022/06/17 11:40:25;;;;;;;10.10;2.55;;;21.80;48.60;;;;;;4151900;28;20473;-89
2022/06/17 11:42:57;;;;;;;6.18;2.42;;;21.80;48.50;;;;;;4146951;28;20033;-88
2022/06/17 11:45:34;;;;;;;8.77;2.90;;;21.70;47.90;;;;;;4146000;28;20471;-89
2022/06/17 11:48:20;;;;;;;8.73;2.38;;;21.70;47.60;;;;;;4141092;28;20167;-87
2022/06/17 11:50:57;;;;;;;5.10;2.65;;;21.60;47.80;;;;;;4133544;28;20031;-90
2022/06/17 11:53:20;;;;;;;7.72;2.58;;;21.60;48.10;;;;;;4141025;28;20061;-90
2022/06/17 11:55:45;;;;;;;11.95;3.15;;;21.50;48.40;;;;;;4143397;28;20026;-87
2022/06/17 11:58:06;;;;;;;4.07;2.47;;;21.50;48.90;;;;;;4143663;28;20609;-88
2022/06/17 12:00:53;;;;;;;4.43;2.40;;;21.50;48.70;;;;;;4135820;28;20793;-89
2022/06/17 12:03:17;;;;;;;4.65;2.25;;;21.50;49.90;;;;;;4134386;28;20033;-89
2022/06/17 12:05:39;;;;;;;8.65;2.25;;;21.50;49.60;;;;;;4136286;28;20581;-89
2022/06/17 12:08:24;;;;;;;6.13;2.13;;;21.50;49.40;;;;;;4148849;28;20456;-89
2022/06/17 12:10:49;;;;;;;6.78;2.72;;;21.50;49.30;;;;;;4134542;28;20519;-88
2022/06/17 12:13:11;;;;;;;8.18;2.30;;;21.50;49.20;;;;;;4147706;28;20079;-91
2022/06/17 12:15:38;;;;;;;6.72;2.13;;;21.50;49.10;;;;;;4135605;28;20236;-90
2022/06/17 12:18:02;;;;;;;5.13;2.45;;;21.50;49.20;;;;;;4150341;28;20120;-89
2022/06/17 12:20:46;;;;;;;6.03;2.13;;;21.50;49.20;;;;;;4133143;28;20092;-88
2022/06/17 12:23:30;;;;;;;7.20;2.97;;;21.50;49.00;;;;;;4137940;28;20149;-89
2022/06/17 12:26:05;;;;;;;9.77;2.33;;;21.50;48.90;;;;;;4150054;28;20064;-88
2022/06/17 12:29:00;;;;;;;6.47;2.45;;;21.50;48.90;;;;;;4137981;28;20433;-90
2022/06/17 12:31:39;;;;;;;;;;;21.50;48.20;;;;;;4154979;28;20106;-91
2022/06/17 12:34:17;;;;;;;5.00;2.22;;;21.50;48.40;;;;;;4154500;28;19916;-88